Terminal Aerodrome Forecast
Issued by NWS

Home | Current Version | Previous Version | Graphics & Text | Print | Product List | Glossary On
Versions: 1 2 3 4 5 6 7 8 9 10 11 12 13 14 15
000
FTUS45 KGGW 092320
TAFOLF
TAF
KOLF 092320Z 1000/1024 09009KT P6SM BKN040
     FM100600 08006KT P6SM VCSH BKN029
     FM101800 08010KT 1SM -SN OVC010=

USA.gov is the U.S. government's official web portal to all federal, state and local government web resources and services.